sensor_id;sensor_type;location;lat;lon;timestamp;noise_LAeq;noise_LA_min;noise_LA_max;noise_LA01;noise_LA95
47109;Laerm;32856;51.422;6.794;2023-08-01T00:00:45;67.99;60.95;74.84;;
47109;Laerm;32856;51.422;6.794;2023-08-01T00:03:13;60.93;56.97;67.80;;
47109;Laerm;32856;51.422;6.794;2023-08-01T00:05:40;63.83;54.03;78.81;;
47109;Laerm;32856;51.422;6.794;2023-08-01T00:08:10;55.79;53.25;64.92;;
47109;Laerm;32856;51.422;6.794;2023-08-01T00:10:39;60.41;54.09;66.91;;
47109;Laerm;32856;51.422;6.794;2023-08-01T00:13:07;60.30;57.76;67.48;;
47109;Laerm;32856;51.422;6.794;2023-08-01T00:15:34;58.58;55.12;68.54;;
47109;Laerm;32856;51.422;6.794;2023-08-01T00:18:03;56.72;53.71;61.50;;
47109;Laerm;32856;51.422;6.794;2023-08-01T00:20:31;63.12;52.08;83.31;;
47109;Laerm;32856;51.422;6.794;2023-08-01T00:22:58;54.27;50.08;60.40;;
47109;Laerm;32856;51.422;6.794;2023-08-01T00:25:25;53.38;48.66;61.16;;
47109;Laerm;32856;51.422;6.794;2023-08-01T00:27:53;53.60;49.18;65.62;;
47109;Laerm;32856;51.422;6.794;2023-08-01T00:30:20;51.92;48.80;60.61;;
47109;Laerm;32856;51.422;6.794;2023-08-01T00:32:47;51.04;47.42;64.01;;
47109;Laerm;32856;51.422;6.794;2023-08-01T00:35:16;54.36;47.12;72.30;;
47109;Laerm;32856;51.422;6.794;2023-08-01T00:37:44;57.34;46.66;77.31;;
47109;Laerm;32856;51.422;6.794;2023-08-01T00:40:12;48.96;45.23;58.69;;
47109;Laerm;32856;51.422;6.794;2023-08-01T00:42:39;48.58;45.04;56.94;;
47109;Laerm;32856;51.422;6.794;2023-08-01T00:45:07;49.20;43.94;62.48;;
47109;Laerm;32856;51.422;6.794;2023-08-01T00:47:34;48.35;45.07;60.50;;
47109;Laerm;32856;51.422;6.794;2023-08-01T00:50:02;48.59;44.97;59.36;;
47109;Laerm;32856;51.422;6.794;2023-08-01T00:52:31;47.54;42.76;56.90;;
47109;Laerm;32856;51.422;6.794;2023-08-01T00:54:58;55.42;43.24;71.36;;
47109;Laerm;32856;51.422;6.794;2023-08-01T00:57:26;47.33;44.27;56.60;;
47109;Laerm;32856;51.422;6.794;2023-08-01T00:59:53;48.68;44.35;56.27;;
47109;Laerm;32856;51.422;6.794;2023-08-01T01:02:21;48.41;44.87;58.18;;
47109;Laerm;32856;51.422;6.794;2023-08-01T01:04:48;47.84;43.44;54.20;;
47109;Laerm;32856;51.422;6.794;2023-08-01T01:07:16;49.23;42.88;55.91;;
47109;Laerm;32856;51.422;6.794;2023-08-01T01:09:45;49.94;44.42;60.07;;
47109;Laerm;32856;51.422;6.794;2023-08-01T01:12:12;48.34;43.63;54.30;;
47109;Laerm;32856;51.422;6.794;2023-08-01T01:14:39;56.89;44.03;75.60;;
47109;Laerm;32856;51.422;6.794;2023-08-01T01:17:07;47.12;43.44;53.64;;
47109;Laerm;32856;51.422;6.794;2023-08-01T01:19:34;49.43;44.47;56.21;;
47109;Laerm;32856;51.422;6.794;2023-08-01T01:22:03;57.77;44.90;76.77;;
47109;Laerm;32856;51.422;6.794;2023-08-01T01:24:31;48.06;44.54;55.77;;
47109;Laerm;32856;51.422;6.794;2023-08-01T01:27:00;48.37;44.23;53.80;;
47109;Laerm;32856;51.422;6.794;2023-08-01T01:29:29;51.58;44.23;58.67;;
47109;Laerm;32856;51.422;6.794;2023-08-01T01:31:57;60.22;44.07;78.01;;
47109;Laerm;32856;51.422;6.794;2023-08-01T01:34:26;49.71;43.49;55.00;;
47109;Laerm;32856;51.422;6.794;2023-08-01T01:36:53;49.28;44.94;57.34;;
47109;Laerm;32856;51.422;6.794;2023-08-01T01:39:22;52.13;47.77;59.97;;
47109;Laerm;32856;51.422;6.794;2023-08-01T01:41:49;56.13;50.56;63.20;;
47109;Laerm;32856;51.422;6.794;2023-08-01T01:44:17;53.92;48.15;62.87;;
47109;Laerm;32856;51.422;6.794;2023-08-01T01:46:44;59.53;49.75;75.52;;
47109;Laerm;32856;51.422;6.794;2023-08-01T01:49:12;52.55;45.80;63.62;;
47109;Laerm;32856;51.422;6.794;2023-08-01T01:51:39;50.33;47.06;57.81;;
47109;Laerm;32856;51.422;6.794;2023-08-01T01:54:07;51.59;46.64;58.66;;
47109;Laerm;32856;51.422;6.794;2023-08-01T01:56:36;59.60;50.47;76.51;;
47109;Laerm;32856;51.422;6.794;2023-08-01T01:59:03;57.81;47.44;76.71;;
47109;Laerm;32856;51.422;6.794;2023-08-01T02:01:30;51.73;47.18;57.12;;
47109;Laerm;32856;51.422;6.794;2023-08-01T02:03:58;49.63;45.04;59.99;;
47109;Laerm;32856;51.422;6.794;2023-08-01T02:06:25;60.66;45.39;79.99;;
47109;Laerm;32856;51.422;6.794;2023-08-01T02:08:52;56.04;47.26;72.90;;
47109;Laerm;32856;51.422;6.794;2023-08-01T02:11:20;50.42;47.20;56.42;;
47109;Laerm;32856;51.422;6.794;2023-08-01T02:13:48;64.01;44.35;82.10;;
47109;Laerm;32856;51.422;6.794;2023-08-01T02:16:16;54.98;46.59;72.99;;
47109;Laerm;32856;51.422;6.794;2023-08-01T02:18:43;58.91;44.54;78.05;;
47109;Laerm;32856;51.422;6.794;2023-08-01T02:21:10;48.37;44.38;52.91;;
47109;Laerm;32856;51.422;6.794;2023-08-01T02:23:38;47.93;42.29;53.27;;
47109;Laerm;32856;51.422;6.794;2023-08-01T02:26:05;49.20;45.30;53.86;;
47109;Laerm;32856;51.422;6.794;2023-08-01T02:28:34;51.77;44.83;67.47;;
47109;Laerm;32856;51.422;6.794;2023-08-01T02:31:03;48.97;44.23;54.22;;
47109;Laerm;32856;51.422;6.794;2023-08-01T02:33:30;49.82;44.73;57.41;;
47109;Laerm;32856;51.422;6.794;2023-08-01T02:35:57;63.14;45.33;81.11;;
47109;Laerm;32856;51.422;6.794;2023-08-01T02:38:25;50.19;45.17;55.31;;
47109;Laerm;32856;51.422;6.794;2023-08-01T02:40:52;58.28;45.75;75.32;;
47109;Laerm;32856;51.422;6.794;2023-08-01T02:43:19;61.98;44.87;78.98;;
47109;Laerm;32856;51.422;6.794;2023-08-01T02:45:47;63.93;46.52;80.87;;
47109;Laerm;32856;51.422;6.794;2023-08-01T02:48:15;60.37;46.97;77.36;;
47109;Laerm;32856;51.422;6.794;2023-08-01T02:50:43;57.93;44.90;78.47;;
47109;Laerm;32856;51.422;6.794;2023-08-01T02:53:10;55.83;44.03;74.76;;
47109;Laerm;32856;51.422;6.794;2023-08-01T02:55:37;58.23;45.30;76.03;;
47109;Laerm;32856;51.422;6.794;2023-08-01T02:58:05;60.57;44.97;77.59;;
47109;Laerm;32856;51.422;6.794;2023-08-01T03:00:32;57.35;45.33;75.63;;
47109;Laerm;32856;51.422;6.794;2023-08-01T03:03:00;55.74;45.57;72.30;;
47109;Laerm;32856;51.422;6.794;2023-08-01T03:05:29;61.17;47.77;76.61;;
47109;Laerm;32856;51.422;6.794;2023-08-01T03:07:56;60.96;46.43;75.76;;
47109;Laerm;32856;51.422;6.794;2023-08-01T03:10:23;59.77;45.91;79.97;;
47109;Laerm;32856;51.422;6.794;2023-08-01T03:13:01;60.98;47.40;77.99;;
47109;Laerm;32856;51.422;6.794;2023-08-01T03:15:29;65.27;48.21;79.17;;
47109;Laerm;32856;51.422;6.794;2023-08-01T03:17:56;62.22;47.30;78.63;;
47109;Laerm;32856;51.422;6.794;2023-08-01T03:20:23;59.43;48.73;74.62;;
47109;Laerm;32856;51.422;6.794;2023-08-01T03:22:52;63.48;45.89;78.23;;
47109;Laerm;32856;51.422;6.794;2023-08-01T03:25:19;58.94;47.86;73.22;;
47109;Laerm;32856;51.422;6.794;2023-08-01T03:27:47;57.52;45.54;77.11;;
47109;Laerm;32856;51.422;6.794;2023-08-01T03:30:14;58.45;47.06;76.17;;
47109;Laerm;32856;51.422;6.794;2023-08-01T03:32:41;61.19;47.91;77.80;;
47109;Laerm;32856;51.422;6.794;2023-08-01T03:35:09;62.54;47.06;81.47;;
47109;Laerm;32856;51.422;6.794;2023-08-01T03:37:36;59.03;47.79;74.16;;
47109;Laerm;32856;51.422;6.794;2023-08-01T03:40:06;60.84;47.38;78.09;;
47109;Laerm;32856;51.422;6.794;2023-08-01T03:42:34;63.27;49.06;79.02;;
47109;Laerm;32856;51.422;6.794;2023-08-01T03:45:02;60.37;46.97;75.09;;
47109;Laerm;32856;51.422;6.794;2023-08-01T03:47:30;63.67;48.00;76.38;;
47109;Laerm;32856;51.422;6.794;2023-08-01T03:49:58;65.04;48.28;78.89;;
47109;Laerm;32856;51.422;6.794;2023-08-01T03:52:25;63.85;49.24;78.36;;
47109;Laerm;32856;51.422;6.794;2023-08-01T03:54:53;60.91;48.13;73.62;;
47109;Laerm;32856;51.422;6.794;2023-08-01T03:57:22;66.46;49.50;77.96;;
47109;Laerm;32856;51.422;6.794;2023-08-01T03:59:49;59.79;49.58;77.63;;
47109;Laerm;32856;51.422;6.794;2023-08-01T04:02:16;63.58;48.81;76.53;;
47109;Laerm;32856;51.422;6.794;2023-08-01T04:04:44;64.08;48.46;79.38;;
47109;Laerm;32856;51.422;6.794;2023-08-01T04:07:12;57.58;49.62;74.65;;
47109;Laerm;32856;51.422;6.794;2023-08-01T04:09:39;60.44;47.72;78.63;;
47109;Laerm;32856;51.422;6.794;2023-08-01T04:12:07;62.65;49.56;79.24;;
47109;Laerm;32856;51.422;6.794;2023-08-01T04:14:35;66.11;50.21;79.39;;
47109;Laerm;32856;51.422;6.794;2023-08-01T04:17:03;63.40;49.75;80.56;;
47109;Laerm;32856;51.422;6.794;2023-08-01T04:19:31;64.59;49.41;77.99;;
47109;Laerm;32856;51.422;6.794;2023-08-01T04:21:58;66.05;49.90;80.87;;
47109;Laerm;32856;51.422;6.794;2023-08-01T04:24:26;61.78;48.10;73.71;;
47109;Laerm;32856;51.422;6.794;2023-08-01T04:26:53;65.89;49.27;76.02;;
47109;Laerm;32856;51.422;6.794;2023-08-01T04:29:21;63.80;50.03;76.12;;
47109;Laerm;32856;51.422;6.794;2023-08-01T04:31:49;64.36;50.24;84.19;;
47109;Laerm;32856;51.422;6.794;2023-08-01T04:34:17;67.36;51.47;79.18;;
47109;Laerm;32856;51.422;6.794;2023-08-01T04:36:44;65.43;50.32;80.79;;
47109;Laerm;32856;51.422;6.794;2023-08-01T04:39:11;66.00;51.40;78.84;;
47109;Laerm;32856;51.422;6.794;2023-08-01T04:41:39;63.20;50.80;76.94;;
47109;Laerm;32856;51.422;6.794;2023-08-01T04:44:06;65.26;50.39;80.62;;
47109;Laerm;32856;51.422;6.794;2023-08-01T04:46:33;63.81;51.13;76.57;;
47109;Laerm;32856;51.422;6.794;2023-08-01T04:49:02;65.28;48.90;78.02;;
47109;Laerm;32856;51.422;6.794;2023-08-01T04:51:29;66.50;50.75;78.86;;
47109;Laerm;32856;51.422;6.794;2023-08-01T04:53:57;65.23;49.80;83.35;;
47109;Laerm;32856;51.422;6.794;2023-08-01T04:56:24;64.25;49.62;78.80;;
47109;Laerm;32856;51.422;6.794;2023-08-01T04:58:51;63.31;48.40;76.77;;
47109;Laerm;32856;51.422;6.794;2023-08-01T05:01:19;62.18;48.60;76.01;;
47109;Laerm;32856;51.422;6.794;2023-08-01T05:03:46;66.64;51.13;78.25;;
47109;Laerm;32856;51.422;6.794;2023-08-01T05:06:15;62.51;49.47;78.05;;
47109;Laerm;32856;51.422;6.794;2023-08-01T05:08:42;66.25;50.28;80.72;;
47109;Laerm;32856;51.422;6.794;2023-08-01T05:11:10;61.44;49.52;74.61;;
47109;Laerm;32856;51.422;6.794;2023-08-01T05:13:37;64.80;50.63;76.46;;
47109;Laerm;32856;51.422;6.794;2023-08-01T05:16:04;64.66;49.12;79.17;;
47109;Laerm;32856;51.422;6.794;2023-08-01T05:18:32;64.90;49.19;76.15;;
47109;Laerm;32856;51.422;6.794;2023-08-01T05:20:59;67.00;50.71;79.37;;
47109;Laerm;32856;51.422;6.794;2023-08-01T05:23:28;66.52;48.73;78.44;;
47109;Laerm;32856;51.422;6.794;2023-08-01T05:25:55;66.36;49.98;79.53;;
47109;Laerm;32856;51.422;6.794;2023-08-01T05:28:22;65.22;48.15;75.00;;
47109;Laerm;32856;51.422;6.794;2023-08-01T05:30:50;64.90;49.34;80.99;;
47109;Laerm;32856;51.422;6.794;2023-08-01T05:33:17;65.62;48.94;76.82;;
47109;Laerm;32856;51.422;6.794;2023-08-01T05:35:44;66.79;49.70;77.79;;
47109;Laerm;32856;51.422;6.794;2023-08-01T05:38:12;66.66;51.37;77.08;;
47109;Laerm;32856;51.422;6.794;2023-08-01T05:40:40;65.43;49.84;76.88;;
47109;Laerm;32856;51.422;6.794;2023-08-01T05:43:08;65.39;49.83;77.60;;
47109;Laerm;32856;51.422;6.794;2023-08-01T05:45:35;66.59;48.76;80.62;;
47109;Laerm;32856;51.422;6.794;2023-08-01T05:48:02;63.78;49.81;76.04;;
47109;Laerm;32856;51.422;6.794;2023-08-01T05:50:30;67.12;51.09;79.75;;
47109;Laerm;32856;51.422;6.794;2023-08-01T05:52:57;68.05;50.25;79.25;;
47109;Laerm;32856;51.422;6.794;2023-08-01T05:55:25;66.89;52.62;77.71;;
47109;Laerm;32856;51.422;6.794;2023-08-01T05:57:53;64.99;50.58;75.51;;
47109;Laerm;32856;51.422;6.794;2023-08-01T06:00:21;67.05;50.28;77.61;;
47109;Laerm;32856;51.422;6.794;2023-08-01T06:02:48;66.68;50.61;75.66;;
47109;Laerm;32856;51.422;6.794;2023-08-01T06:05:16;67.96;50.79;80.49;;
47109;Laerm;32856;51.422;6.794;2023-08-01T06:07:43;68.87;54.20;79.51;;
47109;Laerm;32856;51.422;6.794;2023-08-01T06:10:11;68.93;51.91;83.41;;
47109;Laerm;32856;51.422;6.794;2023-08-01T06:12:38;63.78;50.61;76.52;;
47109;Laerm;32856;51.422;6.794;2023-08-01T06:15:07;66.95;49.77;76.18;;
47109;Laerm;32856;51.422;6.794;2023-08-01T06:17:34;62.80;49.46;73.84;;
47109;Laerm;32856;51.422;6.794;2023-08-01T06:20:02;66.42;49.87;80.17;;
47109;Laerm;32856;51.422;6.794;2023-08-01T06:22:31;66.04;51.60;76.99;;
47109;Laerm;32856;51.422;6.794;2023-08-01T06:24:58;65.66;50.47;80.95;;
47109;Laerm;32856;51.422;6.794;2023-08-01T06:27:25;67.70;51.06;80.74;;
47109;Laerm;32856;51.422;6.794;2023-08-01T06:29:53;66.04;50.94;82.59;;
47109;Laerm;32856;51.422;6.794;2023-08-01T06:32:21;67.22;52.83;80.31;;
47109;Laerm;32856;51.422;6.794;2023-08-01T06:34:49;65.14;50.27;78.93;;
47109;Laerm;32856;51.422;6.794;2023-08-01T06:37:16;66.89;48.90;79.78;;
47109;Laerm;32856;51.422;6.794;2023-08-01T06:39:44;64.63;49.14;74.41;;
47109;Laerm;32856;51.422;6.794;2023-08-01T06:42:11;65.68;49.40;79.51;;
47109;Laerm;32856;51.422;6.794;2023-08-01T06:44:39;66.30;49.85;75.38;;
47109;Laerm;32856;51.422;6.794;2023-08-01T06:47:07;66.46;50.89;77.18;;
47109;Laerm;32856;51.422;6.794;2023-08-01T06:49:36;64.13;49.46;76.20;;
47109;Laerm;32856;51.422;6.794;2023-08-01T06:52:03;69.13;51.03;84.89;;
47109;Laerm;32856;51.422;6.794;2023-08-01T06:54:31;64.96;50.19;78.54;;
47109;Laerm;32856;51.422;6.794;2023-08-01T06:57:00;65.18;51.10;75.56;;
47109;Laerm;32856;51.422;6.794;2023-08-01T06:59:28;62.11;48.63;76.08;;
47109;Laerm;32856;51.422;6.794;2023-08-01T07:01:55;64.65;50.43;78.16;;
47109;Laerm;32856;51.422;6.794;2023-08-01T07:04:22;65.54;52.13;77.17;;
47109;Laerm;32856;51.422;6.794;2023-08-01T07:06:51;65.62;51.80;76.86;;
47109;Laerm;32856;51.422;6.794;2023-08-01T07:09:19;65.09;51.43;78.24;;
47109;Laerm;32856;51.422;6.794;2023-08-01T07:11:46;64.91;50.53;79.35;;
47109;Laerm;32856;51.422;6.794;2023-08-01T07:14:14;65.21;50.84;77.08;;
47109;Laerm;32856;51.422;6.794;2023-08-01T07:16:41;65.12;52.94;75.91;;
47109;Laerm;32856;51.422;6.794;2023-08-01T07:19:09;66.48;50.98;78.66;;
47109;Laerm;32856;51.422;6.794;2023-08-01T07:21:36;66.01;51.95;76.04;;
47109;Laerm;32856;51.422;6.794;2023-08-01T07:24:05;66.17;49.28;79.07;;
47109;Laerm;32856;51.422;6.794;2023-08-01T07:26:33;62.70;50.64;75.47;;
47109;Laerm;32856;51.422;6.794;2023-08-01T07:29:01;64.80;50.29;75.64;;
47109;Laerm;32856;51.422;6.794;2023-08-01T07:31:29;63.90;49.79;78.61;;
47109;Laerm;32856;51.422;6.794;2023-08-01T07:33:56;66.58;50.62;77.21;;
47109;Laerm;32856;51.422;6.794;2023-08-01T07:36:24;67.42;49.34;80.32;;
47109;Laerm;32856;51.422;6.794;2023-08-01T07:38:52;65.84;48.61;79.08;;
47109;Laerm;32856;51.422;6.794;2023-08-01T07:41:23;66.33;52.98;76.28;;
47109;Laerm;32856;51.422;6.794;2023-08-01T07:43:51;65.15;50.35;76.33;;
47109;Laerm;32856;51.422;6.794;2023-08-01T07:46:19;64.53;48.96;76.83;;
47109;Laerm;32856;51.422;6.794;2023-08-01T07:48:46;68.15;51.37;79.91;;
47109;Laerm;32856;51.422;6.794;2023-08-01T07:51:15;64.25;51.52;75.27;;
47109;Laerm;32856;51.422;6.794;2023-08-01T07:53:43;65.54;49.15;75.58;;
47109;Laerm;32856;51.422;6.794;2023-08-01T07:56:10;64.82;49.53;74.92;;
47109;Laerm;32856;51.422;6.794;2023-08-01T07:58:39;63.75;47.86;74.31;;
47109;Laerm;32856;51.422;6.794;2023-08-01T08:01:07;63.94;49.79;76.05;;
47109;Laerm;32856;51.422;6.794;2023-08-01T08:03:35;65.65;48.77;78.36;;
47109;Laerm;32856;51.422;6.794;2023-08-01T08:06:03;68.02;51.29;82.94;;
47109;Laerm;32856;51.422;6.794;2023-08-01T08:08:31;65.34;48.96;84.43;;
47109;Laerm;32856;51.422;6.794;2023-08-01T08:11:00;67.82;52.29;80.95;;
47109;Laerm;32856;51.422;6.794;2023-08-01T08:13:28;66.22;51.05;77.01;;
47109;Laerm;32856;51.422;6.794;2023-08-01T08:15:57;67.32;50.50;78.20;;
47109;Laerm;32856;51.422;6.794;2023-08-01T08:18:25;65.86;48.00;79.92;;
47109;Laerm;32856;51.422;6.794;2023-08-01T08:20:52;65.00;50.10;75.84;;
47109;Laerm;32856;51.422;6.794;2023-08-01T08:23:20;64.93;50.14;77.72;;
47109;Laerm;32856;51.422;6.794;2023-08-01T08:25:47;66.79;49.66;82.00;;
47109;Laerm;32856;51.422;6.794;2023-08-01T08:28:28;64.35;48.45;79.03;;
47109;Laerm;32856;51.422;6.794;2023-08-01T08:30:57;63.78;49.18;76.13;;
47109;Laerm;32856;51.422;6.794;2023-08-01T08:33:25;66.28;50.72;80.16;;
47109;Laerm;32856;51.422;6.794;2023-08-01T08:35:52;67.23;50.15;78.17;;
47109;Laerm;32856;51.422;6.794;2023-08-01T08:38:19;65.36;49.71;79.19;;
47109;Laerm;32856;51.422;6.794;2023-08-01T08:40:50;65.16;49.40;77.61;;
47109;Laerm;32856;51.422;6.794;2023-08-01T08:43:19;64.93;46.71;75.83;;
47109;Laerm;32856;51.422;6.794;2023-08-01T08:45:47;63.03;48.08;73.83;;
47109;Laerm;32856;51.422;6.794;2023-08-01T08:48:17;67.73;50.03;81.66;;
47109;Laerm;32856;51.422;6.794;2023-08-01T08:50:46;64.68;48.02;74.24;;
47109;Laerm;32856;51.422;6.794;2023-08-01T08:53:13;66.68;50.73;79.64;;
47109;Laerm;32856;51.422;6.794;2023-08-01T08:55:41;67.72;52.07;81.47;;
47109;Laerm;32856;51.422;6.794;2023-08-01T08:58:09;65.23;49.82;76.26;;
47109;Laerm;32856;51.422;6.794;2023-08-01T09:00:36;65.35;48.83;76.43;;
47109;Laerm;32856;51.422;6.794;2023-08-01T09:03:04;64.19;53.31;75.52;;
47109;Laerm;32856;51.422;6.794;2023-08-01T09:05:34;67.48;55.12;82.14;;
47109;Laerm;32856;51.422;6.794;2023-08-01T09:08:07;62.74;51.99;76.33;;
47109;Laerm;32856;51.422;6.794;2023-08-01T09:10:35;66.96;48.76;84.39;;
47109;Laerm;32856;51.422;6.794;2023-08-01T09:13:02;66.81;50.92;86.35;;
47109;Laerm;32856;51.422;6.794;2023-08-01T09:15:29;65.43;50.64;76.91;;
47109;Laerm;32856;51.422;6.794;2023-08-01T09:17:58;66.01;51.26;76.65;;
47109;Laerm;32856;51.422;6.794;2023-08-01T09:20:26;66.80;50.52;79.91;;
47109;Laerm;32856;51.422;6.794;2023-08-01T09:22:55;66.63;53.49;77.78;;
47109;Laerm;32856;51.422;6.794;2023-08-01T09:25:30;64.30;50.89;76.17;;
47109;Laerm;32856;51.422;6.794;2023-08-01T09:27:58;64.22;51.26;75.64;;
47109;Laerm;32856;51.422;6.794;2023-08-01T09:30:26;63.87;49.75;75.87;;
47109;Laerm;32856;51.422;6.794;2023-08-01T09:32:54;64.72;47.16;77.84;;
47109;Laerm;32856;51.422;6.794;2023-08-01T09:35:23;66.88;46.95;82.65;;
47109;Laerm;32856;51.422;6.794;2023-08-01T09:37:50;63.88;47.61;77.18;;
47109;Laerm;32856;51.422;6.794;2023-08-01T09:40:19;65.69;51.16;79.31;;
47109;Laerm;32856;51.422;6.794;2023-08-01T09:42:47;64.58;48.23;79.20;;
47109;Laerm;32856;51.422;6.794;2023-08-01T09:45:14;67.06;49.33;81.82;;
47109;Laerm;32856;51.422;6.794;2023-08-01T09:47:42;63.56;48.54;73.65;;
47109;Laerm;32856;51.422;6.794;2023-08-01T09:50:19;67.76;51.56;82.09;;
47109;Laerm;32856;51.422;6.794;2023-08-01T09:52:47;66.27;52.75;80.75;;
47109;Laerm;32856;51.422;6.794;2023-08-01T09:55:20;66.72;53.16;79.81;;
47109;Laerm;32856;51.422;6.794;2023-08-01T09:57:49;67.70;55.35;77.21;;
47109;Laerm;32856;51.422;6.794;2023-08-01T10:00:17;67.45;52.60;80.68;;
47109;Laerm;32856;51.422;6.794;2023-08-01T10:02:45;65.94;53.62;76.36;;
47109;Laerm;32856;51.422;6.794;2023-08-01T10:05:13;65.27;53.29;74.60;;
47109;Laerm;32856;51.422;6.794;2023-08-01T10:07:42;67.67;55.40;82.82;;
47109;Laerm;32856;51.422;6.794;2023-08-01T10:10:10;64.95;50.15;78.56;;
47109;Laerm;32856;51.422;6.794;2023-08-01T10:12:40;65.82;51.34;76.72;;
47109;Laerm;32856;51.422;6.794;2023-08-01T10:15:10;64.80;49.66;77.82;;
47109;Laerm;32856;51.422;6.794;2023-08-01T10:17:38;63.05;53.30;73.11;;
47109;Laerm;32856;51.422;6.794;2023-08-01T10:20:06;67.99;52.27;81.79;;
47109;Laerm;32856;51.422;6.794;2023-08-01T10:22:33;63.00;50.51;75.91;;
47109;Laerm;32856;51.422;6.794;2023-08-01T10:25:01;68.79;52.42;82.55;;
47109;Laerm;32856;51.422;6.794;2023-08-01T10:27:30;64.35;49.07;74.94;;
47109;Laerm;32856;51.422;6.794;2023-08-01T10:29:59;63.87;50.16;75.26;;
47109;Laerm;32856;51.422;6.794;2023-08-01T10:32:31;65.51;50.39;75.51;;
47109;Laerm;32856;51.422;6.794;2023-08-01T10:34:58;64.80;47.70;76.32;;
47109;Laerm;32856;51.422;6.794;2023-08-01T10:37:26;67.68;51.89;79.46;;
47109;Laerm;32856;51.422;6.794;2023-08-01T10:39:57;67.24;50.52;80.32;;
47109;Laerm;32856;51.422;6.794;2023-08-01T10:42:24;71.07;61.84;81.62;;
47109;Laerm;32856;51.422;6.794;2023-08-01T10:44:52;71.03;54.24;80.58;;
47109;Laerm;32856;51.422;6.794;2023-08-01T10:47:27;72.22;53.09;82.76;;
47109;Laerm;32856;51.422;6.794;2023-08-01T10:49:54;70.33;51.52;78.93;;
47109;Laerm;32856;51.422;6.794;2023-08-01T10:52:22;69.39;51.14;78.50;;
47109;Laerm;32856;51.422;6.794;2023-08-01T10:54:56;70.04;55.74;84.43;;
47109;Laerm;32856;51.422;6.794;2023-08-01T10:57:24;67.18;53.06;77.20;;
47109;Laerm;32856;51.422;6.794;2023-08-01T10:59:52;66.65;51.52;77.02;;
47109;Laerm;32856;51.422;6.794;2023-08-01T11:02:20;70.64;50.85;88.83;;
47109;Laerm;32856;51.422;6.794;2023-08-01T11:04:55;68.72;51.58;78.65;;
47109;Laerm;32856;51.422;6.794;2023-08-01T11:07:23;69.59;52.03;80.86;;
47109;Laerm;32856;51.422;6.794;2023-08-01T11:10:02;69.43;51.49;82.63;;
47109;Laerm;32856;51.422;6.794;2023-08-01T11:12:29;69.97;54.12;78.77;;
47109;Laerm;32856;51.422;6.794;2023-08-01T11:14:58;70.28;53.55;81.83;;
47109;Laerm;32856;51.422;6.794;2023-08-01T11:17:26;69.25;48.48;79.11;;
47109;Laerm;32856;51.422;6.794;2023-08-01T11:20:01;70.08;49.00;83.01;;
47109;Laerm;32856;51.422;6.794;2023-08-01T11:22:29;70.43;53.38;82.06;;
47109;Laerm;32856;51.422;6.794;2023-08-01T11:24:57;70.48;50.60;82.02;;
47109;Laerm;32856;51.422;6.794;2023-08-01T11:27:24;67.78;48.40;79.76;;
47109;Laerm;32856;51.422;6.794;2023-08-01T11:29:52;70.67;53.22;79.75;;
47109;Laerm;32856;51.422;6.794;2023-08-01T11:32:20;70.49;55.24;79.02;;
47109;Laerm;32856;51.422;6.794;2023-08-01T11:34:47;67.17;51.13;80.02;;
47109;Laerm;32856;51.422;6.794;2023-08-01T11:37:17;70.57;53.66;84.21;;
47109;Laerm;32856;51.422;6.794;2023-08-01T11:39:45;66.72;48.29;78.99;;
47109;Laerm;32856;51.422;6.794;2023-08-01T11:42:15;69.16;50.96;80.15;;
47109;Laerm;32856;51.422;6.794;2023-08-01T11:44:43;70.36;48.58;81.72;;
47109;Laerm;32856;51.422;6.794;2023-08-01T11:47:11;69.11;49.77;82.76;;
47109;Laerm;32856;51.422;6.794;2023-08-01T11:49:38;67.80;50.97;77.71;;
47109;Laerm;32856;51.422;6.794;2023-08-01T11:52:06;68.11;47.76;81.04;;
47109;Laerm;32856;51.422;6.794;2023-08-01T11:54:44;68.47;48.23;78.94;;
47109;Laerm;32856;51.422;6.794;2023-08-01T11:57:11;70.72;49.95;82.78;;
47109;Laerm;32856;51.422;6.794;2023-08-01T11:59:46;67.35;49.82;77.72;;
47109;Laerm;32856;51.422;6.794;2023-08-01T12:02:20;67.33;47.14;76.68;;
47109;Laerm;32856;51.422;6.794;2023-08-01T12:04:47;65.58;48.29;76.36;;
47109;Laerm;32856;51.422;6.794;2023-08-01T12:07:15;67.77;50.95;77.87;;
47109;Laerm;32856;51.422;6.794;2023-08-01T12:09:44;70.82;60.54;79.97;;
47109;Laerm;32856;51.422;6.794;2023-08-01T12:12:11;70.28;54.71;81.57;;
47109;Laerm;32856;51.422;6.794;2023-08-01T12:14:39;70.89;49.70;79.92;;
47109;Laerm;32856;51.422;6.794;2023-08-01T12:17:07;73.92;52.39;85.71;;
47109;Laerm;32856;51.422;6.794;2023-08-01T12:19:34;71.77;51.36;82.17;;
47109;Laerm;32856;51.422;6.794;2023-08-01T12:22:01;72.65;53.80;85.62;;
47109;Laerm;32856;51.422;6.794;2023-08-01T12:24:29;71.07;50.12;81.76;;
47109;Laerm;32856;51.422;6.794;2023-08-01T12:26:58;69.48;49.80;77.61;;
47109;Laerm;32856;51.422;6.794;2023-08-01T12:29:25;71.10;52.28;78.32;;
47109;Laerm;32856;51.422;6.794;2023-08-01T12:31:52;71.28;52.68;82.73;;
47109;Laerm;32856;51.422;6.794;2023-08-01T12:34:20;70.65;56.36;80.32;;
47109;Laerm;32856;51.422;6.794;2023-08-01T12:36:47;71.41;48.08;86.42;;
47109;Laerm;32856;51.422;6.794;2023-08-01T12:39:14;72.24;50.57;86.46;;
47109;Laerm;32856;51.422;6.794;2023-08-01T12:41:42;69.75;48.23;77.83;;
47109;Laerm;32856;51.422;6.794;2023-08-01T12:44:10;68.74;49.90;77.72;;
47109;Laerm;32856;51.422;6.794;2023-08-01T12:46:38;68.02;49.11;77.38;;
47109;Laerm;32856;51.422;6.794;2023-08-01T12:49:06;69.57;48.78;82.00;;
47109;Laerm;32856;51.422;6.794;2023-08-01T12:51:33;67.89;46.07;76.66;;
47109;Laerm;32856;51.422;6.794;2023-08-01T12:54:01;70.17;49.82;82.15;;
47109;Laerm;32856;51.422;6.794;2023-08-01T12:56:28;69.25;48.53;79.07;;
47109;Laerm;32856;51.422;6.794;2023-08-01T12:58:55;68.84;50.63;80.68;;
47109;Laerm;32856;51.422;6.794;2023-08-01T13:01:24;67.95;47.26;77.04;;
47109;Laerm;32856;51.422;6.794;2023-08-01T13:03:52;67.79;51.95;76.75;;
47109;Laerm;32856;51.422;6.794;2023-08-01T13:06:19;68.95;48.77;77.92;;
47109;Laerm;32856;51.422;6.794;2023-08-01T13:08:47;69.17;48.76;83.77;;
47109;Laerm;32856;51.422;6.794;2023-08-01T13:11:14;67.11;49.41;77.78;;
47109;Laerm;32856;51.422;6.794;2023-08-01T13:13:41;67.25;49.39;77.64;;
47109;Laerm;32856;51.422;6.794;2023-08-01T13:16:09;66.45;51.56;76.98;;
47109;Laerm;32856;51.422;6.794;2023-08-01T13:18:38;67.40;51.06;77.36;;
47109;Laerm;32856;51.422;6.794;2023-08-01T13:21:10;69.17;54.35;80.67;;
47109;Laerm;32856;51.422;6.794;2023-08-01T13:23:37;69.14;50.59;78.93;;
47109;Laerm;32856;51.422;6.794;2023-08-01T13:26:05;69.04;48.58;80.33;;
47109;Laerm;32856;51.422;6.794;2023-08-01T13:28:32;67.22;46.59;77.55;;
47109;Laerm;32856;51.422;6.794;2023-08-01T13:30:59;68.35;49.51;77.78;;
47109;Laerm;32856;51.422;6.794;2023-08-01T13:33:27;66.07;49.59;78.68;;
47109;Laerm;32856;51.422;6.794;2023-08-01T13:35:55;69.36;49.98;78.20;;
47109;Laerm;32856;51.422;6.794;2023-08-01T13:38:24;68.88;49.10;80.67;;
47109;Laerm;32856;51.422;6.794;2023-08-01T13:40:51;68.48;52.56;78.18;;
47109;Laerm;32856;51.422;6.794;2023-08-01T13:43:19;66.88;54.46;77.56;;
47109;Laerm;32856;51.422;6.794;2023-08-01T13:45:46;68.67;49.95;77.79;;
47109;Laerm;32856;51.422;6.794;2023-08-01T13:48:14;69.26;51.13;80.97;;